sensor_id;sensor_type;location;lat;lon;timestamp;P1;durP1;ratioP1;P2;durP2;ratioP2
15454;SDS011;21057;51.024;7.540;2024-01-15T00:02:18;41.93;;;39.00;;
15454;SDS011;21057;51.024;7.540;2024-01-15T00:04:45;39.03;;;35.97;;
15454;SDS011;21057;51.024;7.540;2024-01-15T00:07:13;38.77;;;36.10;;
15454;SDS011;21057;51.024;7.540;2024-01-15T00:09:40;39.97;;;37.07;;
15454;SDS011;21057;51.024;7.540;2024-01-15T00:12:07;41.00;;;37.77;;
15454;SDS011;21057;51.024;7.540;2024-01-15T00:14:34;44.33;;;40.13;;
15454;SDS011;21057;51.024;7.540;2024-01-15T00:17:00;41.53;;;38.10;;
15454;SDS011;21057;51.024;7.540;2024-01-15T00:19:27;40.87;;;37.53;;
15454;SDS011;21057;51.024;7.540;2024-01-15T00:21:57;41.97;;;38.43;;
15454;SDS011;21057;51.024;7.540;2024-01-15T00:24:25;44.37;;;38.60;;
15454;SDS011;21057;51.024;7.540;2024-01-15T00:26:52;40.90;;;36.87;;
15454;SDS011;21057;51.024;7.540;2024-01-15T00:29:20;39.93;;;37.40;;
15454;SDS011;21057;51.024;7.540;2024-01-15T00:31:47;38.17;;;34.83;;
15454;SDS011;21057;51.024;7.540;2024-01-15T00:34:14;37.40;;;34.23;;
15454;SDS011;21057;51.024;7.540;2024-01-15T00:36:40;37.77;;;35.07;;
15454;SDS011;21057;51.024;7.540;2024-01-15T00:39:07;39.07;;;35.80;;
15454;SDS011;21057;51.024;7.540;2024-01-15T00:41:37;38.50;;;35.00;;
15454;SDS011;21057;51.024;7.540;2024-01-15T00:44:03;41.93;;;38.33;;
15454;SDS011;21057;51.024;7.540;2024-01-15T00:46:30;38.00;;;35.07;;
15454;SDS011;21057;51.024;7.540;2024-01-15T00:48:57;44.37;;;40.07;;
15454;SDS011;21057;51.024;7.540;2024-01-15T00:51:24;44.73;;;41.17;;
15454;SDS011;21057;51.024;7.540;2024-01-15T00:53:51;41.50;;;38.90;;
15454;SDS011;21057;51.024;7.540;2024-01-15T00:56:17;39.00;;;35.87;;
15454;SDS011;21057;51.024;7.540;2024-01-15T00:58:45;37.17;;;33.80;;
15454;SDS011;21057;51.024;7.540;2024-01-15T01:01:12;38.27;;;35.90;;
15454;SDS011;21057;51.024;7.540;2024-01-15T01:03:39;44.33;;;39.90;;
15454;SDS011;21057;51.024;7.540;2024-01-15T01:06:06;36.83;;;34.10;;
15454;SDS011;21057;51.024;7.540;2024-01-15T01:08:32;40.67;;;37.93;;
15454;SDS011;21057;51.024;7.540;2024-01-15T01:10:59;40.90;;;38.17;;
15454;SDS011;21057;51.024;7.540;2024-01-15T01:13:26;38.97;;;36.03;;
15454;SDS011;21057;51.024;7.540;2024-01-15T01:15:54;37.03;;;34.63;;
15454;SDS011;21057;51.024;7.540;2024-01-15T01:18:21;36.70;;;33.37;;
15454;SDS011;21057;51.024;7.540;2024-01-15T01:20:48;39.43;;;35.83;;
15454;SDS011;21057;51.024;7.540;2024-01-15T01:23:14;39.00;;;36.03;;
15454;SDS011;21057;51.024;7.540;2024-01-15T01:25:41;40.47;;;36.90;;
15454;SDS011;21057;51.024;7.540;2024-01-15T01:28:08;37.10;;;34.30;;
15454;SDS011;21057;51.024;7.540;2024-01-15T01:30:35;38.43;;;34.67;;
15454;SDS011;21057;51.024;7.540;2024-01-15T01:33:04;37.47;;;33.83;;
15454;SDS011;21057;51.024;7.540;2024-01-15T01:35:31;39.10;;;36.20;;
15454;SDS011;21057;51.024;7.540;2024-01-15T01:37:57;38.63;;;34.93;;
15454;SDS011;21057;51.024;7.540;2024-01-15T01:40:24;39.43;;;35.83;;
15454;SDS011;21057;51.024;7.540;2024-01-15T01:42:51;36.83;;;34.10;;
15454;SDS011;21057;51.024;7.540;2024-01-15T01:45:18;37.23;;;33.87;;
15454;SDS011;21057;51.024;7.540;2024-01-15T01:47:44;38.77;;;36.03;;
15454;SDS011;21057;51.024;7.540;2024-01-15T01:50:13;38.50;;;35.67;;
15454;SDS011;21057;51.024;7.540;2024-01-15T01:52:40;35.37;;;32.67;;
15454;SDS011;21057;51.024;7.540;2024-01-15T01:55:08;37.07;;;33.93;;
15454;SDS011;21057;51.024;7.540;2024-01-15T01:57:36;39.37;;;36.33;;
15454;SDS011;21057;51.024;7.540;2024-01-15T02:00:03;38.83;;;35.53;;
15454;SDS011;21057;51.024;7.540;2024-01-15T02:02:32;45.33;;;41.60;;
15454;SDS011;21057;51.024;7.540;2024-01-15T02:04:59;40.47;;;36.93;;
15454;SDS011;21057;51.024;7.540;2024-01-15T02:07:27;38.03;;;35.10;;
15454;SDS011;21057;51.024;7.540;2024-01-15T02:09:54;41.60;;;38.10;;
15454;SDS011;21057;51.024;7.540;2024-01-15T02:12:21;35.70;;;33.37;;
15454;SDS011;21057;51.024;7.540;2024-01-15T02:14:48;41.23;;;38.10;;
15454;SDS011;21057;51.024;7.540;2024-01-15T02:17:15;38.90;;;35.80;;
15454;SDS011;21057;51.024;7.540;2024-01-15T02:19:42;38.30;;;35.70;;
15454;SDS011;21057;51.024;7.540;2024-01-15T02:22:08;40.87;;;37.10;;
15454;SDS011;21057;51.024;7.540;2024-01-15T02:24:37;37.03;;;34.73;;
15454;SDS011;21057;51.024;7.540;2024-01-15T02:27:04;40.30;;;37.13;;
15454;SDS011;21057;51.024;7.540;2024-01-15T02:29:30;38.20;;;34.97;;
15454;SDS011;21057;51.024;7.540;2024-01-15T02:31:57;43.70;;;39.47;;
15454;SDS011;21057;51.024;7.540;2024-01-15T02:34:24;40.87;;;37.73;;
15454;SDS011;21057;51.024;7.540;2024-01-15T02:36:51;43.80;;;39.60;;
15454;SDS011;21057;51.024;7.540;2024-01-15T02:39:18;47.97;;;43.97;;
15454;SDS011;21057;51.024;7.540;2024-01-15T02:41:46;45.10;;;41.03;;
15454;SDS011;21057;51.024;7.540;2024-01-15T02:44:13;45.30;;;42.20;;
15454;SDS011;21057;51.024;7.540;2024-01-15T02:46:39;43.63;;;40.53;;
15454;SDS011;21057;51.024;7.540;2024-01-15T02:49:06;44.53;;;41.23;;
15454;SDS011;21057;51.024;7.540;2024-01-15T02:51:33;47.13;;;42.83;;
15454;SDS011;21057;51.024;7.540;2024-01-15T02:54:00;41.87;;;39.00;;
15454;SDS011;21057;51.024;7.540;2024-01-15T02:56:27;38.20;;;34.70;;
15454;SDS011;21057;51.024;7.540;2024-01-15T02:58:55;43.27;;;38.90;;
15454;SDS011;21057;51.024;7.540;2024-01-15T03:01:22;44.63;;;40.57;;
15454;SDS011;21057;51.024;7.540;2024-01-15T03:03:49;43.13;;;36.33;;
15454;SDS011;21057;51.024;7.540;2024-01-15T03:06:16;40.33;;;37.07;;
15454;SDS011;21057;51.024;7.540;2024-01-15T03:08:42;40.37;;;37.00;;
15454;SDS011;21057;51.024;7.540;2024-01-15T03:11:09;39.17;;;36.47;;
15454;SDS011;21057;51.024;7.540;2024-01-15T03:13:36;44.13;;;40.83;;
15454;SDS011;21057;51.024;7.540;2024-01-15T03:16:05;42.00;;;39.00;;
15454;SDS011;21057;51.024;7.540;2024-01-15T03:18:32;50.93;;;40.70;;
15454;SDS011;21057;51.024;7.540;2024-01-15T03:20:59;39.37;;;36.13;;
15454;SDS011;21057;51.024;7.540;2024-01-15T03:23:27;45.23;;;41.57;;
15454;SDS011;21057;51.024;7.540;2024-01-15T03:25:53;41.63;;;38.43;;
15454;SDS011;21057;51.024;7.540;2024-01-15T03:28:20;42.07;;;38.17;;
15454;SDS011;21057;51.024;7.540;2024-01-15T03:30:47;51.00;;;39.13;;
15454;SDS011;21057;51.024;7.540;2024-01-15T03:33:15;40.73;;;36.20;;
15454;SDS011;21057;51.024;7.540;2024-01-15T03:35:42;40.17;;;37.43;;
15454;SDS011;21057;51.024;7.540;2024-01-15T03:38:09;41.60;;;38.63;;
15454;SDS011;21057;51.024;7.540;2024-01-15T03:40:36;39.50;;;36.20;;
15454;SDS011;21057;51.024;7.540;2024-01-15T03:43:03;39.87;;;36.83;;
15454;SDS011;21057;51.024;7.540;2024-01-15T03:45:30;46.50;;;37.40;;
15454;SDS011;21057;51.024;7.540;2024-01-15T03:47:56;40.30;;;36.40;;
15454;SDS011;21057;51.024;7.540;2024-01-15T03:50:24;42.03;;;38.37;;
15454;SDS011;21057;51.024;7.540;2024-01-15T03:52:51;41.80;;;37.53;;
15454;SDS011;21057;51.024;7.540;2024-01-15T03:55:18;41.07;;;37.63;;
15454;SDS011;21057;51.024;7.540;2024-01-15T03:57:45;37.90;;;34.47;;
15454;SDS011;21057;51.024;7.540;2024-01-15T04:00:12;44.27;;;40.83;;
15454;SDS011;21057;51.024;7.540;2024-01-15T04:02:42;38.87;;;36.43;;
15454;SDS011;21057;51.024;7.540;2024-01-15T04:05:09;41.30;;;37.87;;
15454;SDS011;21057;51.024;7.540;2024-01-15T04:07:37;37.83;;;35.47;;
15454;SDS011;21057;51.024;7.540;2024-01-15T04:10:04;41.87;;;38.73;;
15454;SDS011;21057;51.024;7.540;2024-01-15T04:12:31;43.43;;;39.70;;
15454;SDS011;21057;51.024;7.540;2024-01-15T04:14:58;48.03;;;44.43;;
15454;SDS011;21057;51.024;7.540;2024-01-15T04:17:25;45.60;;;41.77;;
15454;SDS011;21057;51.024;7.540;2024-01-15T04:19:51;46.63;;;41.57;;
15454;SDS011;21057;51.024;7.540;2024-01-15T04:22:18;45.17;;;41.33;;
15454;SDS011;21057;51.024;7.540;2024-01-15T04:24:46;43.87;;;39.67;;
15454;SDS011;21057;51.024;7.540;2024-01-15T04:27:13;46.43;;;42.47;;
15454;SDS011;21057;51.024;7.540;2024-01-15T04:29:40;49.13;;;45.17;;
15454;SDS011;21057;51.024;7.540;2024-01-15T04:32:07;46.83;;;43.17;;
15454;SDS011;21057;51.024;7.540;2024-01-15T04:34:34;44.23;;;40.97;;
15454;SDS011;21057;51.024;7.540;2024-01-15T04:37:00;44.10;;;41.20;;
15454;SDS011;21057;51.024;7.540;2024-01-15T04:39:27;45.57;;;42.30;;
15454;SDS011;21057;51.024;7.540;2024-01-15T04:41:56;45.53;;;41.47;;
15454;SDS011;21057;51.024;7.540;2024-01-15T04:44:23;47.37;;;43.77;;
15454;SDS011;21057;51.024;7.540;2024-01-15T04:46:49;45.13;;;41.50;;
15454;SDS011;21057;51.024;7.540;2024-01-15T04:49:16;44.23;;;41.03;;
15454;SDS011;21057;51.024;7.540;2024-01-15T04:51:43;47.10;;;42.10;;
15454;SDS011;21057;51.024;7.540;2024-01-15T04:54:09;40.83;;;37.60;;
15454;SDS011;21057;51.024;7.540;2024-01-15T04:56:36;39.07;;;36.40;;
15454;SDS011;21057;51.024;7.540;2024-01-15T04:59:05;39.67;;;36.83;;
15454;SDS011;21057;51.024;7.540;2024-01-15T05:01:31;45.20;;;41.90;;
15454;SDS011;21057;51.024;7.540;2024-01-15T05:03:58;50.47;;;46.47;;
15454;SDS011;21057;51.024;7.540;2024-01-15T05:06:25;45.57;;;42.30;;
15454;SDS011;21057;51.024;7.540;2024-01-15T05:08:52;56.13;;;45.30;;
15454;SDS011;21057;51.024;7.540;2024-01-15T05:11:19;51.30;;;46.83;;
15454;SDS011;21057;51.024;7.540;2024-01-15T05:13:46;48.20;;;44.57;;
15454;SDS011;21057;51.024;7.540;2024-01-15T05:16:14;50.90;;;46.60;;
15454;SDS011;21057;51.024;7.540;2024-01-15T05:18:41;46.87;;;43.77;;
15454;SDS011;21057;51.024;7.540;2024-01-15T05:21:08;51.47;;;46.90;;
15454;SDS011;21057;51.024;7.540;2024-01-15T05:23:35;47.30;;;43.70;;
15454;SDS011;21057;51.024;7.540;2024-01-15T05:26:02;46.37;;;43.13;;
15454;SDS011;21057;51.024;7.540;2024-01-15T05:28:28;48.67;;;44.07;;
15454;SDS011;21057;51.024;7.540;2024-01-15T05:30:55;47.53;;;44.10;;
15454;SDS011;21057;51.024;7.540;2024-01-15T05:33:24;46.97;;;43.20;;
15454;SDS011;21057;51.024;7.540;2024-01-15T05:35:50;47.70;;;43.87;;
15454;SDS011;21057;51.024;7.540;2024-01-15T05:38:18;48.60;;;44.23;;
15454;SDS011;21057;51.024;7.540;2024-01-15T05:40:45;46.77;;;43.43;;
15454;SDS011;21057;51.024;7.540;2024-01-15T05:43:12;43.30;;;40.57;;
15454;SDS011;21057;51.024;7.540;2024-01-15T05:45:42;44.60;;;41.23;;
15454;SDS011;21057;51.024;7.540;2024-01-15T05:48:09;48.53;;;44.03;;
15454;SDS011;21057;51.024;7.540;2024-01-15T05:50:37;51.83;;;40.70;;
15454;SDS011;21057;51.024;7.540;2024-01-15T05:53:04;39.37;;;36.23;;
15454;SDS011;21057;51.024;7.540;2024-01-15T05:55:31;37.87;;;35.13;;
15454;SDS011;21057;51.024;7.540;2024-01-15T05:57:57;45.67;;;41.80;;
15454;SDS011;21057;51.024;7.540;2024-01-15T06:00:24;42.83;;;39.77;;
15454;SDS011;21057;51.024;7.540;2024-01-15T06:02:51;48.60;;;45.23;;
15454;SDS011;21057;51.024;7.540;2024-01-15T06:05:18;45.17;;;41.87;;
15454;SDS011;21057;51.024;7.540;2024-01-15T06:07:46;50.97;;;46.73;;
15454;SDS011;21057;51.024;7.540;2024-01-15T06:10:13;48.30;;;44.40;;
15454;SDS011;21057;51.024;7.540;2024-01-15T06:12:39;44.07;;;40.47;;
15454;SDS011;21057;51.024;7.540;2024-01-15T06:15:06;50.97;;;46.40;;
15454;SDS011;21057;51.024;7.540;2024-01-15T06:17:34;47.43;;;44.07;;
15454;SDS011;21057;51.024;7.540;2024-01-15T06:20:00;49.20;;;46.27;;
15454;SDS011;21057;51.024;7.540;2024-01-15T06:22:28;44.93;;;42.27;;
15454;SDS011;21057;51.024;7.540;2024-01-15T06:24:57;49.73;;;46.73;;
15454;SDS011;21057;51.024;7.540;2024-01-15T06:27:24;53.43;;;49.10;;
15454;SDS011;21057;51.024;7.540;2024-01-15T06:29:51;47.93;;;44.07;;
15454;SDS011;21057;51.024;7.540;2024-01-15T06:32:17;48.27;;;44.33;;
15454;SDS011;21057;51.024;7.540;2024-01-15T06:34:44;48.43;;;44.90;;
15454;SDS011;21057;51.024;7.540;2024-01-15T06:37:11;43.30;;;40.70;;
15454;SDS011;21057;51.024;7.540;2024-01-15T06:39:37;46.47;;;43.07;;
15454;SDS011;21057;51.024;7.540;2024-01-15T06:42:06;46.70;;;43.20;;
15454;SDS011;21057;51.024;7.540;2024-01-15T06:44:33;49.20;;;44.60;;
15454;SDS011;21057;51.024;7.540;2024-01-15T06:46:59;46.30;;;43.27;;
15454;SDS011;21057;51.024;7.540;2024-01-15T06:49:27;48.87;;;45.53;;
15454;SDS011;21057;51.024;7.540;2024-01-15T06:51:54;46.23;;;43.27;;
15454;SDS011;21057;51.024;7.540;2024-01-15T06:54:21;47.67;;;44.30;;
15454;SDS011;21057;51.024;7.540;2024-01-15T06:56:48;48.40;;;44.83;;
15454;SDS011;21057;51.024;7.540;2024-01-15T06:59:16;45.50;;;42.77;;
15454;SDS011;21057;51.024;7.540;2024-01-15T07:01:43;49.47;;;45.80;;
15454;SDS011;21057;51.024;7.540;2024-01-15T07:04:10;45.13;;;42.13;;
15454;SDS011;21057;51.024;7.540;2024-01-15T07:06:37;40.87;;;38.03;;
15454;SDS011;21057;51.024;7.540;2024-01-15T07:09:04;41.53;;;38.40;;
15454;SDS011;21057;51.024;7.540;2024-01-15T07:11:31;43.87;;;40.10;;
15454;SDS011;21057;51.024;7.540;2024-01-15T07:13:58;37.83;;;35.23;;
15454;SDS011;21057;51.024;7.540;2024-01-15T07:16:26;42.33;;;38.87;;
15454;SDS011;21057;51.024;7.540;2024-01-15T07:18:52;48.43;;;45.00;;
15454;SDS011;21057;51.024;7.540;2024-01-15T07:21:19;45.17;;;42.00;;
15454;SDS011;21057;51.024;7.540;2024-01-15T07:23:46;43.50;;;40.50;;
15454;SDS011;21057;51.024;7.540;2024-01-15T07:26:13;47.47;;;44.47;;
15454;SDS011;21057;51.024;7.540;2024-01-15T07:28:40;47.00;;;44.10;;
15454;SDS011;21057;51.024;7.540;2024-01-15T07:31:07;47.70;;;44.77;;
15454;SDS011;21057;51.024;7.540;2024-01-15T07:33:36;45.17;;;42.57;;
15454;SDS011;21057;51.024;7.540;2024-01-15T07:36:03;46.83;;;43.60;;
15454;SDS011;21057;51.024;7.540;2024-01-15T07:38:30;45.50;;;42.60;;
15454;SDS011;21057;51.024;7.540;2024-01-15T07:40:57;43.40;;;40.60;;
15454;SDS011;21057;51.024;7.540;2024-01-15T07:43:24;41.47;;;38.67;;
15454;SDS011;21057;51.024;7.540;2024-01-15T07:45:51;44.27;;;40.70;;
15454;SDS011;21057;51.024;7.540;2024-01-15T07:48:18;45.07;;;41.50;;
15454;SDS011;21057;51.024;7.540;2024-01-15T07:50:46;41.57;;;38.93;;
15454;SDS011;21057;51.024;7.540;2024-01-15T07:53:13;45.60;;;42.40;;
15454;SDS011;21057;51.024;7.540;2024-01-15T07:55:40;46.93;;;43.67;;
15454;SDS011;21057;51.024;7.540;2024-01-15T07:58:07;45.50;;;42.53;;
15454;SDS011;21057;51.024;7.540;2024-01-15T08:00:34;43.87;;;41.20;;
15454;SDS011;21057;51.024;7.540;2024-01-15T08:03:00;48.27;;;44.83;;
15454;SDS011;21057;51.024;7.540;2024-01-15T08:05:27;45.57;;;42.67;;
15454;SDS011;21057;51.024;7.540;2024-01-15T08:07:56;44.53;;;41.57;;
15454;SDS011;21057;51.024;7.540;2024-01-15T08:10:23;45.90;;;42.40;;
15454;SDS011;21057;51.024;7.540;2024-01-15T08:12:49;47.80;;;44.60;;
15454;SDS011;21057;51.024;7.540;2024-01-15T08:15:16;46.20;;;43.17;;
15454;SDS011;21057;51.024;7.540;2024-01-15T08:17:43;45.00;;;41.97;;
15454;SDS011;21057;51.024;7.540;2024-01-15T08:20:10;38.37;;;35.70;;
15454;SDS011;21057;51.024;7.540;2024-01-15T08:22:38;40.57;;;37.93;;
15454;SDS011;21057;51.024;7.540;2024-01-15T08:25:06;44.23;;;41.53;;
15454;SDS011;21057;51.024;7.540;2024-01-15T08:27:34;36.10;;;33.70;;
15454;SDS011;21057;51.024;7.540;2024-01-15T08:30:01;45.03;;;42.10;;
15454;SDS011;21057;51.024;7.540;2024-01-15T08:32:29;47.63;;;44.53;;
15454;SDS011;21057;51.024;7.540;2024-01-15T08:34:56;43.60;;;40.80;;
15454;SDS011;21057;51.024;7.540;2024-01-15T08:37:22;44.53;;;41.37;;
15454;SDS011;21057;51.024;7.540;2024-01-15T08:39:49;42.40;;;39.63;;
15454;SDS011;21057;51.024;7.540;2024-01-15T08:42:17;40.37;;;37.43;;
15454;SDS011;21057;51.024;7.540;2024-01-15T08:44:44;42.20;;;39.37;;
15454;SDS011;21057;51.024;7.540;2024-01-15T08:47:12;37.33;;;34.53;;
15454;SDS011;21057;51.024;7.540;2024-01-15T08:49:38;37.30;;;34.87;;
15454;SDS011;21057;51.024;7.540;2024-01-15T08:52:05;36.50;;;33.77;;
15454;SDS011;21057;51.024;7.540;2024-01-15T08:54:32;36.23;;;33.93;;
15454;SDS011;21057;51.024;7.540;2024-01-15T08:56:59;39.80;;;36.90;;
15454;SDS011;21057;51.024;7.540;2024-01-15T08:59:27;39.90;;;37.17;;
15454;SDS011;21057;51.024;7.540;2024-01-15T09:01:54;35.60;;;33.17;;
15454;SDS011;21057;51.024;7.540;2024-01-15T09:04:22;37.53;;;34.40;;
15454;SDS011;21057;51.024;7.540;2024-01-15T09:06:49;37.07;;;33.90;;
15454;SDS011;21057;51.024;7.540;2024-01-15T09:09:16;34.27;;;31.77;;
15454;SDS011;21057;51.024;7.540;2024-01-15T09:11:43;30.37;;;28.47;;
15454;SDS011;21057;51.024;7.540;2024-01-15T09:14:09;35.63;;;32.73;;
15454;SDS011;21057;51.024;7.540;2024-01-15T09:16:37;32.83;;;30.53;;
15454;SDS011;21057;51.024;7.540;2024-01-15T09:19:04;38.10;;;35.00;;
15454;SDS011;21057;51.024;7.540;2024-01-15T09:21:31;37.87;;;34.47;;
15454;SDS011;21057;51.024;7.540;2024-01-15T09:23:58;32.97;;;30.87;;
15454;SDS011;21057;51.024;7.540;2024-01-15T09:26:25;39.53;;;36.53;;
15454;SDS011;21057;51.024;7.540;2024-01-15T09:28:51;34.70;;;32.13;;
15454;SDS011;21057;51.024;7.540;2024-01-15T09:31:19;37.67;;;35.20;;
15454;SDS011;21057;51.024;7.540;2024-01-15T09:33:47;32.63;;;30.53;;
15454;SDS011;21057;51.024;7.540;2024-01-15T09:36:17;36.27;;;33.77;;
15454;SDS011;21057;51.024;7.540;2024-01-15T09:38:44;34.43;;;31.93;;
15454;SDS011;21057;51.024;7.540;2024-01-15T09:41:11;32.27;;;30.13;;
15454;SDS011;21057;51.024;7.540;2024-01-15T09:43:37;37.07;;;34.20;;
15454;SDS011;21057;51.024;7.540;2024-01-15T09:46:05;35.63;;;33.27;;
15454;SDS011;21057;51.024;7.540;2024-01-15T09:48:32;36.73;;;34.07;;
15454;SDS011;21057;51.024;7.540;2024-01-15T09:51:01;35.57;;;33.13;;
15454;SDS011;21057;51.024;7.540;2024-01-15T09:53:29;37.40;;;34.70;;
15454;SDS011;21057;51.024;7.540;2024-01-15T09:55:57;38.07;;;35.40;;
15454;SDS011;21057;51.024;7.540;2024-01-15T09:58:24;35.43;;;33.13;;
15454;SDS011;21057;51.024;7.540;2024-01-15T10:00:52;36.13;;;33.77;;
15454;SDS011;21057;51.024;7.540;2024-01-15T10:03:20;34.50;;;32.40;;
15454;SDS011;21057;51.024;7.540;2024-01-15T10:05:47;37.03;;;34.10;;
15454;SDS011;21057;51.024;7.540;2024-01-15T10:08:17;34.17;;;31.97;;
15454;SDS011;21057;51.024;7.540;2024-01-15T10:10:44;37.47;;;34.83;;
15454;SDS011;21057;51.024;7.540;2024-01-15T10:13:11;31.27;;;29.27;;
15454;SDS011;21057;51.024;7.540;2024-01-15T10:15:39;34.00;;;31.60;;
15454;SDS011;21057;51.024;7.540;2024-01-15T10:18:07;34.80;;;32.57;;
15454;SDS011;21057;51.024;7.540;2024-01-15T10:20:35;35.83;;;33.40;;
15454;SDS011;21057;51.024;7.540;2024-01-15T10:23:02;34.90;;;32.50;;
15454;SDS011;21057;51.024;7.540;2024-01-15T10:25:31;34.37;;;32.10;;
15454;SDS011;21057;51.024;7.540;2024-01-15T10:28:01;37.40;;;34.27;;
15454;SDS011;21057;51.024;7.540;2024-01-15T10:30:29;34.67;;;32.17;;
15454;SDS011;21057;51.024;7.540;2024-01-15T10:32:58;36.80;;;34.60;;
15454;SDS011;21057;51.024;7.540;2024-01-15T10:35:26;39.83;;;37.23;;
15454;SDS011;21057;51.024;7.540;2024-01-15T10:37:54;37.50;;;34.70;;
15454;SDS011;21057;51.024;7.540;2024-01-15T10:40:21;37.53;;;35.07;;
15454;SDS011;21057;51.024;7.540;2024-01-15T10:42:49;35.90;;;33.70;;
15454;SDS011;21057;51.024;7.540;2024-01-15T10:45:16;41.27;;;38.47;;
15454;SDS011;21057;51.024;7.540;2024-01-15T10:47:43;36.83;;;34.27;;
15454;SDS011;21057;51.024;7.540;2024-01-15T10:50:11;38.27;;;35.77;;
15454;SDS011;21057;51.024;7.540;2024-01-15T10:52:38;30.27;;;28.37;;
15454;SDS011;21057;51.024;7.540;2024-01-15T10:55:06;32.40;;;30.37;;
15454;SDS011;21057;51.024;7.540;2024-01-15T10:57:35;34.90;;;32.70;;
15454;SDS011;21057;51.024;7.540;2024-01-15T11:00:04;32.33;;;30.33;;
15454;SDS011;21057;51.024;7.540;2024-01-15T11:02:32;35.87;;;33.47;;
15454;SDS011;21057;51.024;7.540;2024-01-15T11:05:00;32.47;;;30.37;;
15454;SDS011;21057;51.024;7.540;2024-01-15T11:07:27;32.87;;;30.87;;
15454;SDS011;21057;51.024;7.540;2024-01-15T11:09:57;31.30;;;29.40;;
15454;SDS011;21057;51.024;7.540;2024-01-15T11:12:24;30.80;;;28.80;;
15454;SDS011;21057;51.024;7.540;2024-01-15T11:14:51;34.07;;;32.07;;
15454;SDS011;21057;51.024;7.540;2024-01-15T11:17:21;32.47;;;30.57;;
15454;SDS011;21057;51.024;7.540;2024-01-15T11:19:48;33.03;;;31.10;;
15454;SDS011;21057;51.024;7.540;2024-01-15T11:25:14;33.17;;;31.27;;
15454;SDS011;21057;51.024;7.540;2024-01-15T11:27:44;32.47;;;30.57;;
15454;SDS011;21057;51.024;7.540;2024-01-15T11:30:12;33.47;;;31.47;;
15454;SDS011;21057;51.024;7.540;2024-01-15T11:32:41;31.43;;;29.63;;
15454;SDS011;21057;51.024;7.540;2024-01-15T11:35:08;30.20;;;28.50;;
15454;SDS011;21057;51.024;7.540;2024-01-15T11:40:36;32.43;;;30.43;;
15454;SDS011;21057;51.024;7.540;2024-01-15T11:43:04;30.90;;;29.10;;
15454;SDS011;21057;51.024;7.540;2024-01-15T11:45:31;30.67;;;28.67;;
15454;SDS011;21057;51.024;7.540;2024-01-15T11:48:11;29.47;;;27.77;;
15454;SDS011;21057;51.024;7.540;2024-01-15T11:50:42;33.03;;;31.13;;
15454;SDS011;21057;51.024;7.540;2024-01-15T11:53:14;32.27;;;30.37;;
15454;SDS011;21057;51.024;7.540;2024-01-15T11:55:44;33.10;;;31.00;;
15454;SDS011;21057;51.024;7.540;2024-01-15T11:58:13;32.43;;;30.53;;
15454;SDS011;21057;51.024;7.540;2024-01-15T12:00:42;32.30;;;30.40;;
15454;SDS011;21057;51.024;7.540;2024-01-15T12:03:11;32.00;;;30.10;;
15454;SDS011;21057;51.024;7.540;2024-01-15T12:05:38;33.70;;;31.60;;
15454;SDS011;21057;51.024;7.540;2024-01-15T12:08:07;30.17;;;28.37;;
15454;SDS011;21057;51.024;7.540;2024-01-15T12:10:36;31.57;;;29.77;;
15454;SDS011;21057;51.024;7.540;2024-01-15T12:13:05;31.60;;;29.60;;
15454;SDS011;21057;51.024;7.540;2024-01-15T12:15:35;35.03;;;32.73;;
15454;SDS011;21057;51.024;7.540;2024-01-15T12:18:03;37.47;;;35.30;;
15454;SDS011;21057;51.024;7.540;2024-01-15T12:20:32;33.27;;;31.37;;
15454;SDS011;21057;51.024;7.540;2024-01-15T12:22:59;35.60;;;33.40;;
15454;SDS011;21057;51.024;7.540;2024-01-15T12:25:28;35.33;;;33.13;;
15454;SDS011;21057;51.024;7.540;2024-01-15T12:27:56;34.80;;;32.70;;
15454;SDS011;21057;51.024;7.540;2024-01-15T12:30:23;35.33;;;33.23;;
15454;SDS011;21057;51.024;7.540;2024-01-15T12:32:51;32.77;;;30.83;;
15454;SDS011;21057;51.024;7.540;2024-01-15T12:35:20;33.07;;;31.17;;
15454;SDS011;21057;51.024;7.540;2024-01-15T12:37:48;33.30;;;31.40;;
15454;SDS011;21057;51.024;7.540;2024-01-15T12:40:18;31.50;;;29.70;;
15454;SDS011;21057;51.024;7.540;2024-01-15T12:42:46;30.20;;;28.50;;
15454;SDS011;21057;51.024;7.540;2024-01-15T12:45:12;28.53;;;26.70;;
15454;SDS011;21057;51.024;7.540;2024-01-15T12:47:40;30.80;;;28.87;;
15454;SDS011;21057;51.024;7.540;2024-01-15T12:50:08;30.23;;;28.43;;
15454;SDS011;21057;51.024;7.540;2024-01-15T12:52:36;31.07;;;29.07;;
15454;SDS011;21057;51.024;7.540;2024-01-15T12:55:04;33.40;;;31.50;;
15454;SDS011;21057;51.024;7.540;2024-01-15T12:57:32;32.10;;;30.20;;
15454;SDS011;21057;51.024;7.540;2024-01-15T12:59:59;32.83;;;30.87;;
15454;SDS011;21057;51.024;7.540;2024-01-15T13:02:26;32.57;;;30.67;;
15454;SDS011;21057;51.024;7.540;2024-01-15T13:04:52;30.20;;;28.43;;
15454;SDS011;21057;51.024;7.540;2024-01-15T13:07:20;31.93;;;30.03;;
15454;SDS011;21057;51.024;7.540;2024-01-15T13:09:47;32.37;;;30.43;;
15454;SDS011;21057;51.024;7.540;2024-01-15T13:12:18;32.60;;;30.50;;
15454;SDS011;21057;51.024;7.540;2024-01-15T13:14:45;33.40;;;31.43;;
15454;SDS011;21057;51.024;7.540;2024-01-15T13:17:12;40.37;;;38.00;;
15454;SDS011;21057;51.024;7.540;2024-01-15T13:19:40;39.00;;;36.70;;
15454;SDS011;21057;51.024;7.540;2024-01-15T13:22:07;33.00;;;31.03;;
15454;SDS011;21057;51.024;7.540;2024-01-15T13:24:34;31.80;;;30.03;;
15454;SDS011;21057;51.024;7.540;2024-01-15T13:27:01;31.27;;;29.37;;
15454;SDS011;21057;51.024;7.540;2024-01-15T13:29:30;30.33;;;28.47;;
15454;SDS011;21057;51.024;7.540;2024-01-15T13:31:57;31.07;;;28.97;;
15454;SDS011;21057;51.024;7.540;2024-01-15T13:34:24;30.27;;;28.37;;
15454;SDS011;21057;51.024;7.540;2024-01-15T13:36:51;31.77;;;29.97;;
15454;SDS011;21057;51.024;7.540;2024-01-15T13:39:18;30.63;;;28.83;;
15454;SDS011;21057;51.024;7.540;2024-01-15T13:41:45;29.50;;;27.70;;
15454;SDS011;21057;51.024;7.540;2024-01-15T13:44:12;30.63;;;28.93;;
15454;SDS011;21057;51.024;7.540;2024-01-15T13:46:40;31.27;;;29.47;;
15454;SDS011;21057;51.024;7.540;2024-01-15T13:49:07;32.07;;;30.10;;
15454;SDS011;21057;51.024;7.540;2024-01-15T13:51:35;36.50;;;33.57;;
15454;SDS011;21057;51.024;7.540;2024-01-15T13:54:02;32.30;;;30.37;;
15454;SDS011;21057;51.024;7.540;2024-01-15T13:56:30;32.57;;;30.73;;
15454;SDS011;21057;51.024;7.540;2024-01-15T13:58:57;29.70;;;27.77;;
15454;SDS011;21057;51.024;7.540;2024-01-15T14:01:24;29.17;;;27.53;;
15454;SDS011;21057;51.024;7.540;2024-01-15T14:03:53;32.30;;;30.20;;
15454;SDS011;21057;51.024;7.540;2024-01-15T14:06:20;32.23;;;30.13;;
15454;SDS011;21057;51.024;7.540;2024-01-15T14:08:47;31.07;;;29.30;;
15454;SDS011;21057;51.024;7.540;2024-01-15T14:11:14;31.17;;;29.27;;
15454;SDS011;21057;51.024;7.540;2024-01-15T14:13:40;29.20;;;27.60;;
15454;SDS011;21057;51.024;7.540;2024-01-15T14:16:07;31.27;;;29.17;;
15454;SDS011;21057;51.024;7.540;2024-01-15T14:18:34;33.43;;;30.03;;
15454;SDS011;21057;51.024;7.540;2024-01-15T14:21:03;33.67;;;31.40;;
15454;SDS011;21057;51.024;7.540;2024-01-15T14:23:30;32.07;;;30.07;;
15454;SDS011;21057;51.024;7.540;2024-01-15T14:25:57;32.13;;;30.13;;
15454;SDS011;21057;51.024;7.540;2024-01-15T14:28:23;28.77;;;27.17;;